createdAt,value
2024-01-24T00:02:57.302Z,-2.27
2024-01-24T00:06:00.165Z,-2.28
2024-01-24T00:09:03.036Z,-2.33
2024-01-24T00:12:06.416Z,-2.31
2024-01-24T00:15:09.609Z,-2.30
2024-01-24T00:18:12.708Z,-2.35
2024-01-24T00:21:15.234Z,-2.32
2024-01-24T00:24:18.171Z,-2.34
2024-01-24T00:27:21.015Z,-2.40
2024-01-24T00:30:24.200Z,-2.41
2024-01-24T00:33:30.554Z,-2.41
2024-01-24T00:36:33.606Z,-2.52
2024-01-24T00:39:36.613Z,-2.66
2024-01-24T00:42:44.112Z,-2.51
2024-01-24T00:45:46.846Z,-2.48
2024-01-24T00:48:49.726Z,-2.46
2024-01-24T00:51:52.305Z,-2.46
2024-01-24T00:54:54.996Z,-2.51
2024-01-24T00:57:58.177Z,-2.54
2024-01-24T01:01:01.362Z,-2.57
2024-01-24T01:04:05.333Z,-2.59
2024-01-24T01:07:08.291Z,-2.61
2024-01-24T01:10:11.045Z,-2.65
2024-01-24T01:13:14.497Z,-2.58
2024-01-24T01:16:17.263Z,-2.61
2024-01-24T01:19:20.778Z,-2.60
2024-01-24T01:22:23.462Z,-2.60
2024-01-24T01:25:26.232Z,-2.55
2024-01-24T01:28:29.092Z,-2.57
2024-01-24T01:31:32.323Z,-2.63
2024-01-24T01:34:35.109Z,-2.62
2024-01-24T01:37:39.388Z,-2.68
2024-01-24T01:40:42.210Z,-2.70
2024-01-24T01:43:46.060Z,-2.69
2024-01-24T01:46:49.298Z,-2.68
2024-01-24T01:49:53.850Z,-2.68
2024-01-24T01:52:56.638Z,-2.76
2024-01-24T01:55:59.620Z,-2.70
2024-01-24T01:59:02.876Z,-2.73
2024-01-24T02:02:06.875Z,-2.65
2024-01-24T02:05:10.084Z,-2.57
2024-01-24T02:08:12.873Z,-2.60
2024-01-24T02:11:15.936Z,-2.60
2024-01-24T02:14:18.765Z,-2.60
2024-01-24T02:17:21.478Z,-2.59
2024-01-24T02:20:25.172Z,-2.58
2024-01-24T02:23:27.963Z,-2.66
2024-01-24T02:26:31.002Z,-2.65
2024-01-24T02:29:33.491Z,-2.68
2024-01-24T02:32:36.617Z,-2.65
2024-01-24T02:35:39.407Z,-2.68
2024-01-24T02:38:42.699Z,-2.69
2024-01-24T02:41:45.741Z,-2.70
2024-01-24T02:44:48.482Z,-2.64
2024-01-24T02:47:50.932Z,-2.44
2024-01-24T02:50:54.609Z,-2.28
2024-01-24T02:53:57.320Z,-2.18
2024-01-24T02:57:00.652Z,-2.10
2024-01-24T03:00:03.776Z,-2.16
2024-01-24T03:03:07.188Z,-2.18
2024-01-24T03:06:09.650Z,-2.20
2024-01-24T03:09:12.600Z,-2.26
2024-01-24T03:12:15.103Z,-2.28
2024-01-24T03:15:18.172Z,-2.35
2024-01-24T03:18:23.031Z,-2.38
2024-01-24T03:21:26.062Z,-2.40
2024-01-24T03:24:28.741Z,-2.43
2024-01-24T03:27:31.747Z,-2.44
2024-01-24T03:30:35.015Z,-2.45
2024-01-24T03:33:38.645Z,-2.49
2024-01-24T03:36:41.409Z,-2.54
2024-01-24T03:39:44.197Z,-2.57
2024-01-24T03:42:46.973Z,-2.62
2024-01-24T03:45:49.778Z,-2.68
2024-01-24T03:48:52.570Z,-2.68
2024-01-24T03:51:55.617Z,-2.68
2024-01-24T03:54:58.116Z,-2.70
2024-01-24T03:58:00.829Z,-2.70
2024-01-24T04:01:03.699Z,-2.61
2024-01-24T04:04:06.654Z,-2.42
2024-01-24T04:07:09.411Z,-2.17
2024-01-24T04:10:12.283Z,-2.02
2024-01-24T04:13:15.485Z,-1.86
2024-01-24T04:16:18.695Z,-1.75
2024-01-24T04:19:21.215Z,-1.71
2024-01-24T04:22:24.276Z,-1.63
2024-01-24T04:25:27.007Z,-1.57
2024-01-24T04:28:29.962Z,-1.50
2024-01-24T04:31:32.699Z,-1.41
2024-01-24T04:34:35.482Z,-1.34
2024-01-24T04:37:38.221Z,-1.29
2024-01-24T04:40:41.276Z,-1.23
2024-01-24T04:43:44.026Z,-1.15
2024-01-24T04:46:46.995Z,-1.11
2024-01-24T04:49:49.484Z,-1.07
2024-01-24T04:52:52.747Z,-1.00
2024-01-24T04:55:55.438Z,-0.97
2024-01-24T04:58:58.458Z,-0.93
2024-01-24T05:02:00.896Z,-0.85
2024-01-24T05:05:06.494Z,-0.79
2024-01-24T05:08:09.002Z,-0.75
2024-01-24T05:11:12.118Z,-0.72
2024-01-24T05:14:14.796Z,-0.68
2024-01-24T05:17:17.786Z,-0.69
2024-01-24T05:20:20.233Z,-0.65
2024-01-24T05:23:23.026Z,-0.65
2024-01-24T05:26:25.452Z,-0.65
2024-01-24T05:29:28.445Z,-0.63
2024-01-24T05:32:31.240Z,-0.62
2024-01-24T05:35:34.505Z,-0.61
2024-01-24T05:38:37.253Z,-0.61
2024-01-24T05:41:40.201Z,-0.57
2024-01-24T05:44:42.719Z,-0.56
2024-01-24T05:47:45.813Z,-0.55
2024-01-24T05:50:48.272Z,-0.61
2024-01-24T05:53:51.253Z,-0.58
2024-01-24T05:56:53.962Z,-0.57
2024-01-24T05:59:57.166Z,-0.57
2024-01-24T06:02:59.751Z,-0.54
2024-01-24T06:06:02.669Z,-0.54
2024-01-24T06:09:05.456Z,-0.50
2024-01-24T06:12:08.431Z,-0.50
2024-01-24T06:15:11.274Z,-0.51
2024-01-24T06:18:13.990Z,-0.48
2024-01-24T06:21:16.852Z,-0.44
2024-01-24T06:24:20.877Z,-0.43
2024-01-24T06:27:23.993Z,-0.37
2024-01-24T06:30:29.720Z,-0.39
2024-01-24T06:33:33.580Z,-0.37
2024-01-24T06:36:36.372Z,-0.34
2024-01-24T06:39:39.157Z,-0.33
2024-01-24T06:42:42.211Z,-0.28
2024-01-24T06:45:44.743Z,-0.21
2024-01-24T06:48:47.922Z,-0.19
2024-01-24T06:51:51.873Z,-0.16
2024-01-24T06:54:55.018Z,-0.09
2024-01-24T06:57:57.864Z,-0.09
2024-01-24T07:01:00.684Z,-0.08
2024-01-24T07:04:04.011Z,-0.02
2024-01-24T07:07:07.152Z,0.02
2024-01-24T07:10:12.794Z,0.07
2024-01-24T07:13:16.176Z,0.13
2024-01-24T07:16:18.886Z,0.00
2024-01-24T07:19:21.893Z,0.13
2024-01-24T07:22:24.342Z,0.16
2024-01-24T07:25:27.320Z,0.22
2024-01-24T07:28:30.517Z,0.28
2024-01-24T07:31:33.556Z,0.40
2024-01-24T07:34:40.514Z,0.49
2024-01-24T07:37:45.549Z,0.54
2024-01-24T07:40:48.399Z,0.58
2024-01-24T07:43:51.606Z,0.67
2024-01-24T07:46:54.523Z,0.76
2024-01-24T07:49:57.745Z,0.83
2024-01-24T07:53:00.469Z,0.91
2024-01-24T07:56:11.344Z,0.94
2024-01-24T07:59:23.080Z,1.03
2024-01-24T08:02:26.250Z,1.16
2024-01-24T08:05:31.033Z,1.25
2024-01-24T08:08:33.716Z,1.36
2024-01-24T08:11:36.736Z,1.45
2024-01-24T08:14:40.735Z,1.55
2024-01-24T08:17:44.084Z,1.62
2024-01-24T08:20:46.577Z,1.61
2024-01-24T08:23:51.634Z,1.63
2024-01-24T08:26:54.603Z,1.61
2024-01-24T08:29:58.396Z,1.63
2024-01-24T08:33:01.306Z,1.63
2024-01-24T08:36:05.077Z,1.67
2024-01-24T08:39:07.641Z,1.65
2024-01-24T08:42:10.461Z,1.64
2024-01-24T08:45:13.064Z,1.63
2024-01-24T08:48:16.263Z,1.68
2024-01-24T08:51:19.252Z,1.77
2024-01-24T08:54:22.202Z,1.82
2024-01-24T08:57:25.719Z,1.86
2024-01-24T09:00:29.188Z,1.88
2024-01-24T09:03:31.877Z,1.96
2024-01-24T09:06:34.939Z,2.04
2024-01-24T09:09:40.877Z,2.14
2024-01-24T09:12:45.961Z,2.18
2024-01-24T09:15:48.906Z,2.17
2024-01-24T09:18:52.905Z,2.17
2024-01-24T09:21:56.220Z,2.16
2024-01-24T09:24:59.769Z,2.19
2024-01-24T09:28:04.315Z,2.16
2024-01-24T09:31:07.390Z,2.15
2024-01-24T09:34:12.108Z,2.06
2024-01-24T09:37:14.948Z,2.07
2024-01-24T09:40:21.500Z,2.05
2024-01-24T09:43:28.537Z,2.06
2024-01-24T09:46:34.999Z,2.04
2024-01-24T09:49:39.396Z,1.99
2024-01-24T09:52:45.129Z,2.01
2024-01-24T09:55:51.226Z,1.97
2024-01-24T09:58:54.255Z,1.96
2024-01-24T10:01:59.250Z,2.00
2024-01-24T10:05:04.754Z,2.03
2024-01-24T10:08:07.409Z,2.02
2024-01-24T10:11:10.409Z,2.06
2024-01-24T10:14:13.717Z,2.09
2024-01-24T10:17:16.644Z,2.15
2024-01-24T10:20:20.248Z,2.16
2024-01-24T10:23:23.441Z,2.23
2024-01-24T10:26:31.038Z,2.29
2024-01-24T10:29:34.267Z,2.32
2024-01-24T10:32:37.918Z,2.35
2024-01-24T10:35:41.978Z,2.36
2024-01-24T10:38:49.324Z,2.29
2024-01-24T10:41:56.035Z,2.44
2024-01-24T10:45:01.667Z,2.43
2024-01-24T10:48:06.193Z,2.42
2024-01-24T10:51:10.771Z,2.43
2024-01-24T10:54:17.065Z,2.45
2024-01-24T10:57:20.751Z,2.52
2024-01-24T11:00:26.358Z,2.55
2024-01-24T11:03:29.273Z,2.57
2024-01-24T11:06:35.234Z,2.59
2024-01-24T11:09:56.443Z,2.63
2024-01-24T11:13:00.898Z,2.64
2024-01-24T11:16:26.308Z,2.69
2024-01-24T11:19:30.657Z,2.71
2024-01-24T11:22:33.612Z,2.76
2024-01-24T11:25:39.448Z,2.79
2024-01-24T11:28:42.041Z,2.83
2024-01-24T11:31:45.100Z,2.89
2024-01-24T11:34:48.029Z,2.99
2024-01-24T11:37:53.336Z,3.06
2024-01-24T11:41:04.003Z,3.16
2024-01-24T11:44:12.399Z,3.30
2024-01-24T11:47:15.478Z,3.48
2024-01-24T11:50:20.785Z,3.60
2024-01-24T11:53:25.558Z,3.66
2024-01-24T11:56:28.362Z,3.68
2024-01-24T11:59:30.927Z,3.73
2024-01-24T12:02:35.283Z,3.70
2024-01-24T12:05:38.278Z,3.67
2024-01-24T12:08:41.067Z,3.66
2024-01-24T12:11:46.701Z,3.66
2024-01-24T12:14:49.541Z,3.62
2024-01-24T12:17:52.507Z,3.60
2024-01-24T12:20:58.084Z,3.58
2024-01-24T12:24:05.008Z,3.58
2024-01-24T12:27:09.306Z,3.64
2024-01-24T12:30:15.548Z,3.67
2024-01-24T12:33:19.038Z,3.65
2024-01-24T12:36:23.965Z,3.65
2024-01-24T12:39:32.951Z,3.61
2024-01-24T12:42:36.795Z,3.49
2024-01-24T12:45:41.072Z,3.46
2024-01-24T12:48:45.451Z,3.33
2024-01-24T12:51:48.606Z,3.29
2024-01-24T12:54:53.150Z,3.29
2024-01-24T12:57:56.144Z,3.25
2024-01-24T13:00:59.530Z,3.24
2024-01-24T13:04:02.413Z,3.17
2024-01-24T13:07:06.182Z,3.22
2024-01-24T13:10:10.532Z,3.20
2024-01-24T13:13:13.896Z,3.22
2024-01-24T13:16:16.968Z,3.24
2024-01-24T13:19:20.064Z,3.24
2024-01-24T13:22:22.643Z,3.24
2024-01-24T13:25:26.868Z,3.16
2024-01-24T13:28:29.486Z,3.19
2024-01-24T13:31:34.012Z,3.13
2024-01-24T13:34:36.906Z,3.06
2024-01-24T13:37:40.053Z,3.13
2024-01-24T13:40:42.622Z,3.16
2024-01-24T13:43:45.418Z,3.10
2024-01-24T13:46:48.223Z,3.07
2024-01-24T13:49:51.860Z,2.97
2024-01-24T13:52:54.928Z,2.99
2024-01-24T13:55:58.186Z,3.01
2024-01-24T13:59:00.897Z,2.99
2024-01-24T14:02:04.903Z,2.97
2024-01-24T14:05:11.199Z,2.99
2024-01-24T14:08:14.293Z,3.00
2024-01-24T14:11:17.204Z,2.98
2024-01-24T14:14:19.845Z,3.08
2024-01-24T14:17:23.777Z,3.10
2024-01-24T14:20:26.423Z,2.98
2024-01-24T14:23:29.297Z,3.03
2024-01-24T14:26:32.339Z,2.95
2024-01-24T14:29:35.087Z,2.97
2024-01-24T14:32:39.805Z,2.96
2024-01-24T14:35:43.036Z,2.94
2024-01-24T14:38:45.954Z,2.93
2024-01-24T14:41:49.063Z,2.89
2024-01-24T14:44:52.235Z,2.93
2024-01-24T14:47:55.170Z,2.92
2024-01-24T14:50:58.005Z,2.93
2024-01-24T14:54:01.037Z,2.93
2024-01-24T14:57:03.954Z,2.91
2024-01-24T15:00:11.435Z,2.96
2024-01-24T15:03:14.789Z,2.99
2024-01-24T15:06:17.858Z,2.99
2024-01-24T15:09:20.593Z,2.97
2024-01-24T15:12:23.958Z,2.89
2024-01-24T15:15:28.219Z,2.85
2024-01-24T15:18:31.165Z,2.77
2024-01-24T15:21:33.949Z,2.66
2024-01-24T15:24:37.779Z,2.53
2024-01-24T15:27:40.656Z,2.35
2024-01-24T15:30:44.169Z,2.31
2024-01-24T15:33:47.056Z,2.23
2024-01-24T15:36:51.001Z,2.12
2024-01-24T15:39:53.880Z,2.07
2024-01-24T15:43:00.910Z,2.06
2024-01-24T15:46:05.275Z,2.09
2024-01-24T15:49:08.967Z,2.06
2024-01-24T15:52:14.733Z,2.07
2024-01-24T15:55:20.132Z,2.09
2024-01-24T15:58:23.309Z,2.19
2024-01-24T16:01:27.949Z,2.22
2024-01-24T16:04:34.681Z,2.31
2024-01-24T16:07:38.035Z,2.36
2024-01-24T16:10:41.244Z,2.40
2024-01-24T16:13:44.702Z,2.55
2024-01-24T16:16:48.856Z,2.57
2024-01-24T16:19:51.593Z,2.60
2024-01-24T16:22:56.879Z,2.61
2024-01-24T16:26:01.056Z,2.88
2024-01-24T16:29:07.394Z,3.03
2024-01-24T16:36:20.076Z,3.29
2024-01-24T16:39:23.197Z,3.43
2024-01-24T16:42:25.892Z,3.55
2024-01-24T16:45:28.865Z,3.62
2024-01-24T16:49:00.459Z,3.57
2024-01-24T16:52:09.917Z,3.56
2024-01-24T16:55:12.722Z,3.53
2024-01-24T16:58:15.686Z,3.52
2024-01-24T17:01:18.559Z,3.42
2024-01-24T17:04:22.096Z,3.41
2024-01-24T17:07:24.860Z,3.38
2024-01-24T17:10:27.697Z,3.42
2024-01-24T17:13:30.179Z,3.43
2024-01-24T17:16:33.521Z,3.47
2024-01-24T17:19:38.828Z,3.34
2024-01-24T17:22:41.878Z,3.38
2024-01-24T17:25:45.441Z,3.49
2024-01-24T17:28:48.776Z,3.48
2024-01-24T17:31:51.559Z,3.49
2024-01-24T17:34:54.781Z,3.52
2024-01-24T17:37:57.401Z,3.57
2024-01-24T17:41:01.610Z,3.56
2024-01-24T17:44:04.942Z,3.57
2024-01-24T17:47:08.196Z,3.55
2024-01-24T17:50:11.186Z,3.52
2024-01-24T17:53:14.897Z,3.62
2024-01-24T17:56:18.802Z,3.52
2024-01-24T17:59:23.255Z,3.47
2024-01-24T18:02:29.098Z,3.43
2024-01-24T18:05:32.370Z,3.37
2024-01-24T18:08:44.962Z,3.35
2024-01-24T18:11:47.848Z,3.21
2024-01-24T18:14:50.744Z,3.15
2024-01-24T18:18:00.797Z,3.05
2024-01-24T18:21:03.781Z,3.08
2024-01-24T18:24:08.305Z,3.13
2024-01-24T18:27:10.965Z,3.14
2024-01-24T18:30:17.092Z,3.13
2024-01-24T18:33:22.280Z,3.12
2024-01-24T18:36:26.303Z,3.18
2024-01-24T18:39:29.494Z,3.24
2024-01-24T18:42:32.500Z,3.28
2024-01-24T18:45:35.786Z,3.37
2024-01-24T18:48:38.803Z,3.37
2024-01-24T18:51:42.293Z,3.38
2024-01-24T18:54:45.477Z,3.38
2024-01-24T18:57:51.258Z,3.35
2024-01-24T19:00:54.937Z,3.30
2024-01-24T19:03:58.913Z,3.26
2024-01-24T19:07:05.462Z,3.16
2024-01-24T19:10:09.120Z,3.09
2024-01-24T19:13:12.433Z,3.01
2024-01-24T19:16:15.416Z,2.99
2024-01-24T19:19:18.365Z,2.94
2024-01-24T19:22:20.996Z,2.92
2024-01-24T19:25:23.730Z,2.91
2024-01-24T19:28:27.430Z,2.90
2024-01-24T19:31:30.507Z,2.86
2024-01-24T19:34:33.948Z,2.87
2024-01-24T19:37:37.081Z,2.81
2024-01-24T19:40:39.599Z,2.73
2024-01-24T19:43:42.981Z,2.67
2024-01-24T19:46:45.937Z,2.68
2024-01-24T19:49:49.759Z,2.61
2024-01-24T19:52:56.056Z,2.56
2024-01-24T19:56:00.643Z,2.50
2024-01-24T19:59:05.015Z,2.46
2024-01-24T20:02:08.084Z,2.36
2024-01-24T20:05:11.192Z,2.29
2024-01-24T20:08:13.741Z,2.23
2024-01-24T20:11:16.924Z,2.18
2024-01-24T20:14:19.750Z,2.16
2024-01-24T20:17:23.555Z,2.06
2024-01-24T20:20:26.179Z,2.00
2024-01-24T20:23:30.879Z,2.00
2024-01-24T20:26:35.853Z,1.91
2024-01-24T20:29:38.822Z,1.92
2024-01-24T20:32:45.689Z,1.92
2024-01-24T20:35:56.113Z,1.96
2024-01-24T20:38:58.853Z,1.91
2024-01-24T20:42:05.521Z,1.83
2024-01-24T20:45:11.051Z,1.72
2024-01-24T20:48:16.129Z,1.76
2024-01-24T20:51:19.135Z,1.74
2024-01-24T20:54:22.123Z,1.69
2024-01-24T20:57:24.883Z,1.69
2024-01-24T21:00:27.845Z,1.63
2024-01-24T21:03:30.909Z,1.55
2024-01-24T21:06:34.134Z,1.52
2024-01-24T21:09:36.778Z,1.55
2024-01-24T21:12:39.690Z,1.65
2024-01-24T21:15:42.482Z,1.85
2024-01-24T21:18:45.378Z,2.01
2024-01-24T21:21:48.316Z,2.41
2024-01-24T21:24:51.240Z,2.56
2024-01-24T21:27:54.299Z,2.86
2024-01-24T21:30:57.279Z,2.83
2024-01-24T21:33:59.977Z,2.79
2024-01-24T21:37:03.044Z,2.92
2024-01-24T21:40:07.034Z,3.09
2024-01-24T21:43:10.044Z,3.17
2024-01-24T21:46:12.904Z,3.25
2024-01-24T21:49:15.953Z,3.22
2024-01-24T21:52:19.412Z,3.59
2024-01-24T21:55:22.467Z,3.53
2024-01-24T21:58:25.161Z,3.88
2024-01-24T22:01:33.343Z,4.49
2024-01-24T22:04:36.882Z,4.59
2024-01-24T22:07:39.884Z,4.79
2024-01-24T22:10:43.082Z,4.71
2024-01-24T22:13:45.763Z,4.78
2024-01-24T22:16:48.800Z,4.73
2024-01-24T22:19:51.332Z,4.76
2024-01-24T22:22:54.068Z,4.91
2024-01-24T22:25:56.822Z,4.96
2024-01-24T22:28:59.785Z,4.97
2024-01-24T22:32:03.880Z,4.81
2024-01-24T22:35:07.132Z,4.68
2024-01-24T22:38:09.736Z,4.62
2024-01-24T22:41:12.587Z,4.47
2024-01-24T22:44:15.306Z,4.24
2024-01-24T22:47:19.264Z,4.18
2024-01-24T22:50:21.942Z,4.25
2024-01-24T22:53:25.057Z,4.19
2024-01-24T22:56:27.946Z,4.05
2024-01-24T22:59:31.535Z,4.13
2024-01-24T23:02:34.373Z,4.67
2024-01-24T23:05:37.344Z,4.35
2024-01-24T23:08:40.695Z,4.19
2024-01-24T23:11:43.713Z,4.07
2024-01-24T23:14:46.264Z,3.87
2024-01-24T23:17:49.089Z,3.92
2024-01-24T23:20:53.682Z,4.17
2024-01-24T23:23:56.404Z,3.96
2024-01-24T23:26:58.818Z,3.86
2024-01-24T23:30:01.569Z,3.80
2024-01-24T23:33:04.429Z,3.76
2024-01-24T23:36:08.822Z,3.61
2024-01-24T23:39:11.545Z,3.62
2024-01-24T23:42:14.443Z,3.65
2024-01-24T23:45:17.259Z,3.61
2024-01-24T23:48:20.340Z,3.46
2024-01-24T23:51:23.110Z,3.42
2024-01-24T23:54:26.089Z,3.29
2024-01-24T23:57:28.613Z,3.39
